createdAt,value
2022-12-20T00:01:38.453Z,10.30
2022-12-20T00:04:40.878Z,10.22
2022-12-20T00:07:43.237Z,10.27
2022-12-20T00:10:46.754Z,10.27
2022-12-20T00:13:49.320Z,10.21
2022-12-20T00:16:51.933Z,10.27
2022-12-20T00:19:54.034Z,10.27
2022-12-20T00:22:57.260Z,10.22
2022-12-20T00:26:08.007Z,10.16
2022-12-20T00:29:10.589Z,10.10
2022-12-20T00:32:14.172Z,10.01
2022-12-20T00:35:16.374Z,10.11
2022-12-20T00:38:18.566Z,10.20
2022-12-20T00:41:26.819Z,10.18
2022-12-20T00:44:28.959Z,10.21
2022-12-20T00:47:31.092Z,10.15
2022-12-20T00:50:33.314Z,10.03
2022-12-20T00:53:36.660Z,9.87
2022-12-20T00:56:38.885Z,10.15
2022-12-20T00:59:41.118Z,9.93
2022-12-20T01:02:44.461Z,9.88
2022-12-20T01:06:01.423Z,9.93
2022-12-20T01:09:03.938Z,9.60
2022-12-20T01:12:08.584Z,9.90
2022-12-20T01:15:12.619Z,10.08
2022-12-20T01:18:14.809Z,10.14
2022-12-20T01:21:19.348Z,10.11
2022-12-20T01:24:21.488Z,10.03
2022-12-20T01:27:23.687Z,10.15
2022-12-20T01:30:25.817Z,10.01
2022-12-20T01:33:28.577Z,10.17
2022-12-20T01:36:33.758Z,10.15
2022-12-20T01:39:36.559Z,9.88
2022-12-20T01:42:38.829Z,9.88
2022-12-20T01:45:41.448Z,9.69
2022-12-20T01:48:47.312Z,9.49
2022-12-20T01:52:00.768Z,9.58
2022-12-20T01:55:05.675Z,9.66
2022-12-20T01:58:13.034Z,9.53
2022-12-20T02:01:16.258Z,9.38
2022-12-20T02:04:18.256Z,9.46
2022-12-20T02:07:30.012Z,9.87
2022-12-20T02:10:42.989Z,9.92
2022-12-20T02:14:06.863Z,9.99
2022-12-20T02:17:19.041Z,10.11
2022-12-20T02:20:35.865Z,10.15
2022-12-20T02:24:02.194Z,10.04
2022-12-20T02:27:10.175Z,10.00
2022-12-20T02:30:14.870Z,10.06
2022-12-20T02:33:19.173Z,9.65
2022-12-20T02:36:21.588Z,9.51
2022-12-20T02:39:29.006Z,9.26
2022-12-20T02:42:33.816Z,9.39
2022-12-20T02:45:37.732Z,9.38
2022-12-20T02:48:41.953Z,9.24
2022-12-20T02:51:48.642Z,9.14
2022-12-20T02:54:50.933Z,9.57
2022-12-20T02:58:02.984Z,9.86
2022-12-20T03:01:11.072Z,10.00
2022-12-20T03:04:13.717Z,9.83
2022-12-20T03:07:15.913Z,9.83
2022-12-20T03:10:19.325Z,9.98
2022-12-20T03:13:23.613Z,10.07
2022-12-20T03:16:52.604Z,9.92
2022-12-20T03:19:54.807Z,10.00
2022-12-20T03:22:56.871Z,9.73
2022-12-20T03:25:58.990Z,9.29
2022-12-20T03:29:12.377Z,9.39
2022-12-20T03:32:15.538Z,9.40
2022-12-20T03:35:20.036Z,9.47
2022-12-20T03:38:22.405Z,9.40
2022-12-20T03:41:25.949Z,9.45
2022-12-20T03:44:28.431Z,9.58
2022-12-20T03:47:30.838Z,9.86
2022-12-20T03:50:33.388Z,9.97
2022-12-20T03:53:39.120Z,10.08
2022-12-20T03:56:41.313Z,10.19
2022-12-20T03:59:43.718Z,10.11
2022-12-20T04:02:50.575Z,10.34
2022-12-20T04:05:53.497Z,10.01
2022-12-20T04:08:55.857Z,10.10
2022-12-20T04:12:04.150Z,9.62
2022-12-20T04:15:10.049Z,9.74
2022-12-20T04:18:14.726Z,9.61
2022-12-20T04:21:32.564Z,9.46
2022-12-20T04:24:34.715Z,9.58
2022-12-20T04:27:58.881Z,9.54
2022-12-20T04:31:02.651Z,9.50
2022-12-20T04:34:08.361Z,9.55
2022-12-20T04:37:11.092Z,9.96
2022-12-20T04:40:20.850Z,9.96
2022-12-20T04:43:28.399Z,9.77
2022-12-20T04:46:34.815Z,9.28
2022-12-20T04:49:39.366Z,9.91
2022-12-20T04:53:00.833Z,12.07
2022-12-20T04:56:04.850Z,12.28
2022-12-20T04:59:07.036Z,12.59
2022-12-20T05:02:09.369Z,13.15
2022-12-20T05:05:31.791Z,13.43
2022-12-20T05:08:34.719Z,13.73
2022-12-20T05:11:37.254Z,13.96
2022-12-20T05:14:42.961Z,13.78
2022-12-20T05:17:46.741Z,14.18
2022-12-20T05:21:09.678Z,13.45
2022-12-20T05:24:31.026Z,14.04
2022-12-20T05:27:45.601Z,14.58
2022-12-20T05:30:47.794Z,13.81
2022-12-20T05:33:50.059Z,14.24
2022-12-20T05:36:52.535Z,15.29
2022-12-20T05:39:56.387Z,14.63
2022-12-20T05:42:59.851Z,14.81
2022-12-20T05:46:10.913Z,15.62
2022-12-20T05:49:25.369Z,15.06
2022-12-20T05:52:28.447Z,14.93
2022-12-20T05:55:30.900Z,15.09
2022-12-20T05:58:33.651Z,15.45
2022-12-20T06:01:38.770Z,14.91
2022-12-20T06:04:41.488Z,14.96
2022-12-20T06:07:53.004Z,15.68
2022-12-20T06:10:59.667Z,15.60
2022-12-20T06:14:01.923Z,16.51
2022-12-20T06:17:05.352Z,16.78
2022-12-20T06:20:10.066Z,16.79
2022-12-20T06:23:12.124Z,17.85
2022-12-20T06:26:23.486Z,17.96
2022-12-20T06:29:26.022Z,16.81
2022-12-20T06:32:40.483Z,17.56
2022-12-20T06:35:44.488Z,17.21
2022-12-20T06:38:46.629Z,16.55
2022-12-20T06:41:50.140Z,16.24
2022-12-20T06:44:52.837Z,16.23
2022-12-20T06:47:55.042Z,16.77
2022-12-20T06:50:58.905Z,17.28
2022-12-20T06:54:03.055Z,16.85
2022-12-20T06:57:08.414Z,17.90
2022-12-20T07:00:12.908Z,17.98
2022-12-20T07:03:16.402Z,17.20
2022-12-20T07:06:19.856Z,19.25
2022-12-20T07:09:22.241Z,19.29
2022-12-20T07:12:24.640Z,18.22
2022-12-20T07:15:27.997Z,19.33
2022-12-20T07:18:30.592Z,19.42
2022-12-20T07:21:33.122Z,19.24
2022-12-20T07:24:36.299Z,19.32
2022-12-20T07:27:39.865Z,19.68
2022-12-20T07:30:41.927Z,19.83
2022-12-20T07:33:45.584Z,17.95
2022-12-20T07:36:48.491Z,18.95
2022-12-20T07:39:52.098Z,18.21
2022-12-20T07:42:55.063Z,18.08
2022-12-20T07:46:06.982Z,17.29
2022-12-20T07:49:09.636Z,17.13
2022-12-20T07:52:15.312Z,17.43
2022-12-20T07:55:18.126Z,18.31
2022-12-20T07:58:20.898Z,18.80
2022-12-20T08:01:23.190Z,18.57
2022-12-20T08:04:30.351Z,18.56
2022-12-20T08:07:32.637Z,19.36
2022-12-20T08:10:35.033Z,19.40
2022-12-20T08:13:42.629Z,19.23
2022-12-20T08:16:48.310Z,19.18
2022-12-20T08:19:54.739Z,19.76
2022-12-20T08:22:57.002Z,19.24
2022-12-20T08:26:01.860Z,18.95
2022-12-20T08:29:03.915Z,19.43
2022-12-20T08:32:07.704Z,19.40
2022-12-20T08:35:10.075Z,19.21
2022-12-20T08:38:12.528Z,19.02
2022-12-20T08:41:15.963Z,19.26
2022-12-20T08:44:18.036Z,19.57
2022-12-20T08:47:20.325Z,19.19
2022-12-20T08:50:23.152Z,19.54
2022-12-20T08:53:25.516Z,19.99
2022-12-20T08:56:27.636Z,19.14
2022-12-20T08:59:30.109Z,18.90
2022-12-20T09:02:32.680Z,19.86
2022-12-20T09:05:34.942Z,19.45
2022-12-20T09:08:38.781Z,18.73
2022-12-20T09:11:40.960Z,18.87
2022-12-20T09:14:43.087Z,20.02
2022-12-20T09:17:45.346Z,19.32
2022-12-20T09:20:47.611Z,18.56
2022-12-20T09:23:54.960Z,19.83
2022-12-20T09:26:57.064Z,19.09
2022-12-20T09:29:59.203Z,18.82
2022-12-20T09:33:09.715Z,18.79
2022-12-20T09:36:14.902Z,19.47
2022-12-20T09:39:16.972Z,19.52
2022-12-20T09:42:24.952Z,18.80
2022-12-20T09:45:30.373Z,19.64
2022-12-20T09:48:35.718Z,19.19
2022-12-20T09:52:15.413Z,18.96
2022-12-20T09:55:39.583Z,18.66
2022-12-20T09:59:05.192Z,20.31
2022-12-20T10:02:53.067Z,20.60
2022-12-20T10:05:58.963Z,19.79
2022-12-20T10:09:31.851Z,19.81
2022-12-20T10:12:42.899Z,19.23
2022-12-20T10:15:54.912Z,19.34
2022-12-20T10:19:22.121Z,20.64
2022-12-20T10:22:30.729Z,20.23
2022-12-20T10:25:33.953Z,19.10
2022-12-20T10:28:37.165Z,20.32
2022-12-20T10:31:40.992Z,21.27
2022-12-20T10:35:10.765Z,20.27
2022-12-20T10:38:17.816Z,20.02
2022-12-20T10:41:24.521Z,20.72
2022-12-20T10:44:29.991Z,20.96
2022-12-20T10:47:42.363Z,20.40
2022-12-20T10:50:56.829Z,21.36
2022-12-20T10:54:04.291Z,21.24
2022-12-20T10:57:28.741Z,20.02
2022-12-20T11:00:32.363Z,21.03
2022-12-20T11:03:50.250Z,21.50
2022-12-20T11:06:52.523Z,21.32
2022-12-20T11:10:01.226Z,21.12
2022-12-20T11:13:04.434Z,21.32
2022-12-20T11:16:06.981Z,21.09
2022-12-20T11:19:41.493Z,20.77
2022-12-20T11:23:01.884Z,21.32
2022-12-20T11:26:25.673Z,21.16
2022-12-20T11:29:36.819Z,20.92
2022-12-20T11:33:00.610Z,21.50
2022-12-20T11:36:18.188Z,21.32
2022-12-20T11:39:51.295Z,20.88
2022-12-20T11:43:04.915Z,21.62
2022-12-20T11:46:32.466Z,21.57
2022-12-20T11:49:46.445Z,21.28
2022-12-20T11:53:08.201Z,21.68
2022-12-20T11:56:19.013Z,21.36
2022-12-20T11:59:42.965Z,21.01
2022-12-20T12:02:45.240Z,20.95
2022-12-20T12:06:02.651Z,21.18
2022-12-20T12:09:23.377Z,20.34
2022-12-20T12:12:38.058Z,21.45
2022-12-20T12:15:55.331Z,21.37
2022-12-20T12:19:00.919Z,20.82
2022-12-20T12:22:16.370Z,21.32
2022-12-20T12:25:19.512Z,21.19
2022-12-20T12:28:23.408Z,21.09
2022-12-20T12:31:32.567Z,21.27
2022-12-20T12:34:43.816Z,21.69
2022-12-20T12:38:15.437Z,21.62
2022-12-20T12:41:20.297Z,21.41
2022-12-20T12:44:25.311Z,21.86
2022-12-20T12:47:43.503Z,22.27
2022-12-20T12:50:49.396Z,21.98
2022-12-20T12:53:53.970Z,22.28
2022-12-20T12:57:15.495Z,22.23
2022-12-20T13:00:54.527Z,21.80
2022-12-20T13:04:02.139Z,21.71
2022-12-20T13:07:43.704Z,22.17
2022-12-20T13:10:45.778Z,21.80
2022-12-20T13:13:48.197Z,21.12
2022-12-20T13:17:17.224Z,21.59
2022-12-20T13:20:30.026Z,21.22
2022-12-20T13:23:32.103Z,20.62
2022-12-20T13:26:57.113Z,21.15
2022-12-20T13:30:07.929Z,21.64
2022-12-20T13:33:24.620Z,20.63
2022-12-20T13:36:39.389Z,21.54
2022-12-20T13:39:50.887Z,21.92
2022-12-20T13:42:57.141Z,20.72
2022-12-20T13:46:14.885Z,21.40
2022-12-20T13:49:28.132Z,21.82
2022-12-20T13:52:43.287Z,21.93
2022-12-20T13:55:45.960Z,21.48
2022-12-20T13:58:48.280Z,21.87
2022-12-20T14:01:53.474Z,21.92
2022-12-20T14:05:26.767Z,21.41
2022-12-20T14:08:38.880Z,20.92
2022-12-20T14:11:47.818Z,20.14
2022-12-20T14:14:51.574Z,20.37
2022-12-20T14:17:54.013Z,19.58
2022-12-20T14:20:59.778Z,18.78
2022-12-20T14:24:05.622Z,18.37
2022-12-20T14:27:12.523Z,18.05
2022-12-20T14:30:36.697Z,17.61
2022-12-20T14:33:43.191Z,17.58
2022-12-20T14:36:50.153Z,17.82
2022-12-20T14:40:13.508Z,17.90
2022-12-20T14:43:17.138Z,17.67
2022-12-20T14:46:23.537Z,17.45
2022-12-20T14:50:08.859Z,17.14
2022-12-20T14:53:20.557Z,16.85
2022-12-20T14:56:29.700Z,17.18
2022-12-20T14:59:34.062Z,17.44
2022-12-20T15:03:01.821Z,17.58
2022-12-20T15:06:05.781Z,17.69
2022-12-20T15:09:08.927Z,17.80
2022-12-20T15:12:13.090Z,17.88
2022-12-20T15:15:31.226Z,17.75
2022-12-20T15:18:33.720Z,17.53
2022-12-20T15:21:40.595Z,17.54
2022-12-20T15:24:45.218Z,17.54
2022-12-20T15:27:47.353Z,17.44
2022-12-20T15:30:51.399Z,17.30
2022-12-20T15:33:59.575Z,16.96
2022-12-20T15:37:02.745Z,17.13
2022-12-20T15:40:05.194Z,16.75
2022-12-20T15:43:14.177Z,16.82
2022-12-20T15:46:17.589Z,16.77
2022-12-20T15:49:21.441Z,16.68
2022-12-20T15:52:25.630Z,16.60
2022-12-20T15:55:28.190Z,16.40
2022-12-20T15:58:30.656Z,16.41
2022-12-20T16:01:40.704Z,16.44
2022-12-20T16:04:43.147Z,16.31
2022-12-20T16:07:45.196Z,16.27
2022-12-20T16:10:48.123Z,16.16
2022-12-20T16:13:54.235Z,16.13
2022-12-20T16:16:56.413Z,16.10
2022-12-20T16:19:59.317Z,16.02
2022-12-20T16:23:04.918Z,16.00
2022-12-20T16:26:07.219Z,15.84
2022-12-20T16:29:09.390Z,15.96
2022-12-20T16:32:16.472Z,15.85
2022-12-20T16:35:25.713Z,16.01
2022-12-20T16:38:27.834Z,15.76
2022-12-20T16:41:33.057Z,15.46
2022-12-20T16:44:35.126Z,15.64
2022-12-20T16:47:38.100Z,15.52
2022-12-20T16:50:43.551Z,15.63
2022-12-20T16:54:17.518Z,15.65
2022-12-20T16:57:08.932Z,15.59
2022-12-20T17:00:17.611Z,15.62
2022-12-20T17:03:20.039Z,15.70
2022-12-20T17:06:22.304Z,15.66
2022-12-20T17:09:24.494Z,15.70
2022-12-20T17:12:26.665Z,15.54
2022-12-20T17:15:32.055Z,15.53
2022-12-20T17:18:34.051Z,15.67
2022-12-20T17:24:58.343Z,15.63
2022-12-20T17:28:01.824Z,15.68
2022-12-20T17:31:08.166Z,15.68
2022-12-20T17:34:23.744Z,16.07
2022-12-20T17:37:25.761Z,17.15
2022-12-20T17:40:29.061Z,17.61
2022-12-20T17:43:31.146Z,16.82
2022-12-20T17:46:33.203Z,15.90
2022-12-20T17:49:35.164Z,15.68
2022-12-20T17:52:38.165Z,15.21
2022-12-20T17:55:40.465Z,15.27
2022-12-20T17:58:43.968Z,15.31
2022-12-20T18:01:48.435Z,15.24
2022-12-20T18:04:51.363Z,15.11
2022-12-20T18:07:55.504Z,15.16
2022-12-20T18:10:58.637Z,15.12
2022-12-20T18:14:01.415Z,15.17
2022-12-20T18:17:03.526Z,15.33
2022-12-20T18:20:07.913Z,15.23
2022-12-20T18:23:10.080Z,15.09
2022-12-20T18:26:20.917Z,15.13
2022-12-20T18:29:23.051Z,14.91
2022-12-20T18:32:25.257Z,14.95
2022-12-20T18:35:28.407Z,15.14
2022-12-20T18:38:33.619Z,14.91
2022-12-20T18:41:36.425Z,15.04
2022-12-20T18:44:43.040Z,15.15
2022-12-20T18:47:45.365Z,15.16
2022-12-20T18:50:48.108Z,15.03
2022-12-20T18:53:51.615Z,15.30
2022-12-20T18:56:53.865Z,15.35
2022-12-20T18:59:55.978Z,15.31
2022-12-20T19:03:00.284Z,15.29
2022-12-20T19:06:08.985Z,15.51
2022-12-20T19:09:12.349Z,15.60
2022-12-20T19:12:14.991Z,15.40
2022-12-20T19:15:21.247Z,15.43
2022-12-20T19:18:23.303Z,15.55
2022-12-20T19:21:27.967Z,15.87
2022-12-20T19:24:30.322Z,15.85
2022-12-20T19:27:32.448Z,15.74
2022-12-20T19:30:34.740Z,15.68
2022-12-20T19:33:40.942Z,15.83
2022-12-20T19:36:46.671Z,15.63
2022-12-20T19:39:49.677Z,15.53
2022-12-20T19:42:56.446Z,15.48
2022-12-20T19:45:59.570Z,15.59
2022-12-20T19:49:04.786Z,15.24
2022-12-20T19:52:08.982Z,15.12
2022-12-20T19:55:11.097Z,14.89
2022-12-20T19:58:13.662Z,14.71
2022-12-20T20:01:18.146Z,14.70
2022-12-20T20:04:20.521Z,14.53
2022-12-20T20:07:25.068Z,14.45
2022-12-20T20:10:27.471Z,14.44
2022-12-20T20:13:30.120Z,14.34
2022-12-20T20:16:32.631Z,14.32
2022-12-20T20:19:34.898Z,14.42
2022-12-20T20:22:36.906Z,14.21
2022-12-20T20:25:46.158Z,14.13
2022-12-20T20:28:48.372Z,14.10
2022-12-20T20:31:53.430Z,14.14
2022-12-20T20:34:56.023Z,14.04
2022-12-20T20:37:58.897Z,13.88
2022-12-20T20:41:01.180Z,13.87
2022-12-20T20:44:03.461Z,13.85
2022-12-20T20:47:05.806Z,13.87
2022-12-20T20:50:08.999Z,13.74
2022-12-20T20:53:12.171Z,13.83
2022-12-20T20:56:14.709Z,13.68
2022-12-20T20:59:18.090Z,13.71
2022-12-20T21:02:22.098Z,13.58
2022-12-20T21:08:49.321Z,13.47
2022-12-20T21:11:52.106Z,13.52
2022-12-20T21:15:21.139Z,13.51
2022-12-20T21:18:16.925Z,13.45
2022-12-20T21:21:20.759Z,13.55
2022-12-20T21:24:22.884Z,13.51
2022-12-20T21:27:25.380Z,13.54
2022-12-20T21:30:28.192Z,13.33
2022-12-20T21:33:30.427Z,13.46
2022-12-20T21:36:32.502Z,13.51
2022-12-20T21:39:35.388Z,13.68
2022-12-20T21:42:37.830Z,13.65
2022-12-20T21:45:39.950Z,13.62
2022-12-20T21:48:44.256Z,13.55
2022-12-20T21:51:46.735Z,13.55
2022-12-20T21:54:48.816Z,13.41
2022-12-20T21:57:54.353Z,13.25
2022-12-20T22:00:57.524Z,13.04
2022-12-20T22:04:02.573Z,13.42
2022-12-20T22:07:04.581Z,13.45
2022-12-20T22:10:08.308Z,13.40
2022-12-20T22:13:11.753Z,13.38
2022-12-20T22:16:16.779Z,13.33
2022-12-20T22:19:19.233Z,13.26
2022-12-20T22:22:21.339Z,12.98
2022-12-20T22:25:24.775Z,13.39
2022-12-20T22:28:27.310Z,12.86
2022-12-20T22:31:31.608Z,13.03
2022-12-20T22:34:33.710Z,13.00
2022-12-20T22:37:35.789Z,12.96
2022-12-20T22:40:38.393Z,13.01
2022-12-20T22:43:44.681Z,12.76
2022-12-20T22:46:46.773Z,12.73
2022-12-20T22:49:48.959Z,12.83
2022-12-20T22:52:52.456Z,13.64
2022-12-20T22:55:55.333Z,14.91
2022-12-20T22:58:57.542Z,15.16
2022-12-20T23:01:59.731Z,16.39
2022-12-20T23:05:03.269Z,15.75
2022-12-20T23:08:05.420Z,15.99
2022-12-20T23:11:45.636Z,16.70
2022-12-20T23:15:05.931Z,16.78
2022-12-20T23:18:08.053Z,16.37
2022-12-20T23:21:29.418Z,16.10
2022-12-20T23:24:32.481Z,16.52
2022-12-20T23:27:36.018Z,16.89
2022-12-20T23:30:38.017Z,16.75
2022-12-20T23:33:40.436Z,16.56
2022-12-20T23:36:42.747Z,17.19
2022-12-20T23:39:44.775Z,17.38
2022-12-20T23:42:46.993Z,16.79
2022-12-20T23:45:49.195Z,16.84
2022-12-20T23:48:51.959Z,17.57
2022-12-20T23:51:54.064Z,17.64
2022-12-20T23:54:56.123Z,17.15
2022-12-20T23:57:58.304Z,16.94
